createdAt,value
2022-12-01T00:01:15.046Z,101820.03
2022-12-01T00:03:42.752Z,101820.97
2022-12-01T00:06:13.100Z,101815.75
2022-12-01T00:09:02.517Z,101814.94
2022-12-01T00:11:29.256Z,101818.41
2022-12-01T00:13:57.130Z,101821.91
2022-12-01T00:16:25.247Z,101818.41
2022-12-01T00:18:54.018Z,101813.25
2022-12-01T00:21:24.286Z,101821.72
2022-12-01T00:23:54.849Z,101817.41
2022-12-01T00:26:23.985Z,101820.97
2022-12-01T00:28:52.892Z,101824.44
2022-12-01T00:31:21.060Z,101823.63
2022-12-01T00:33:50.824Z,101818.38
2022-12-01T00:36:18.780Z,101815.72
2022-12-01T00:38:46.997Z,101813.19
2022-12-01T00:41:16.001Z,101822.56
2022-12-01T00:43:44.021Z,101818.31
2022-12-01T00:46:11.839Z,101811.34
2022-12-01T00:48:39.670Z,101821.72
2022-12-01T00:51:08.164Z,101816.59
2022-12-01T00:53:35.955Z,101814.72
2022-12-01T00:56:03.683Z,101815.66
2022-12-01T00:58:32.700Z,101813.88
2022-12-01T01:01:01.464Z,101819.13
2022-12-01T01:03:30.276Z,101820.91
2022-12-01T01:06:04.044Z,101813.00
2022-12-01T01:08:31.805Z,101819.13
2022-12-01T01:11:01.012Z,101812.16
2022-12-01T01:13:29.572Z,101828.63
2022-12-01T01:16:02.958Z,101824.25
2022-12-01T01:18:31.038Z,101829.50
2022-12-01T01:21:00.169Z,101834.63
2022-12-01T01:23:28.273Z,101832.00
2022-12-01T01:26:03.033Z,101838.06
2022-12-01T01:28:31.130Z,101838.94
2022-12-01T01:30:59.242Z,101843.28
2022-12-01T01:33:28.338Z,101838.06
2022-12-01T01:35:59.816Z,101843.25
2022-12-01T01:38:27.539Z,101835.53
2022-12-01T01:40:55.415Z,101843.31
2022-12-01T01:43:41.635Z,101834.59
2022-12-01T01:46:11.118Z,101847.63
2022-12-01T01:48:43.145Z,101839.81
2022-12-01T01:51:12.732Z,101829.50
2022-12-01T01:53:40.448Z,101845.06
2022-12-01T01:56:09.671Z,101838.13
2022-12-01T01:58:39.141Z,101843.31
2022-12-01T02:01:07.883Z,101845.03
2022-12-01T02:03:38.191Z,101841.56
2022-12-01T02:06:09.398Z,101841.59
2022-12-01T02:08:38.189Z,101838.13
2022-12-01T02:11:48.283Z,101839.94
2022-12-01T02:14:41.113Z,101839.03
2022-12-01T02:17:19.366Z,101841.66
2022-12-01T02:20:11.020Z,101838.19
2022-12-01T02:23:05.732Z,101845.94
2022-12-01T02:25:48.543Z,101836.38
2022-12-01T02:28:39.328Z,101835.47
2022-12-01T02:31:15.692Z,101837.28
2022-12-01T02:33:52.356Z,101832.88
2022-12-01T02:36:27.990Z,101822.50
2022-12-01T02:39:00.729Z,101832.88
2022-12-01T02:41:32.959Z,101826.81
2022-12-01T02:44:05.882Z,101826.81
2022-12-01T02:46:38.822Z,101832.03
2022-12-01T02:49:12.101Z,101826.03
2022-12-01T02:51:44.572Z,101827.81
2022-12-01T02:54:14.985Z,101825.97
2022-12-01T02:56:45.828Z,101833.78
2022-12-01T02:59:15.767Z,101833.88
2022-12-01T03:01:57.678Z,101833.88
2022-12-01T03:04:40.029Z,101827.69
2022-12-01T03:07:17.351Z,101832.94
2022-12-01T03:09:56.024Z,101839.91
2022-12-01T03:12:30.840Z,101831.28
2022-12-01T03:15:07.948Z,101834.56
2022-12-01T03:17:42.137Z,101837.22
2022-12-01T03:20:13.900Z,101832.06
2022-12-01T03:22:47.850Z,101826.03
2022-12-01T03:25:17.255Z,101829.50
2022-12-01T03:28:19.309Z,101827.81
2022-12-01T03:30:37.873Z,101824.25
2022-12-01T03:33:11.558Z,101830.34
2022-12-01T03:35:43.879Z,101820.78
2022-12-01T03:38:16.698Z,101834.69
2022-12-01T03:40:47.426Z,101826.81
2022-12-01T03:43:20.661Z,101819.84
2022-12-01T03:45:57.340Z,101821.50
2022-12-01T03:48:27.806Z,101826.72
2022-12-01T03:51:00.894Z,101821.63
2022-12-01T03:53:35.109Z,101822.38
2022-12-01T03:56:07.218Z,101827.56
2022-12-01T03:58:41.188Z,101831.84
2022-12-01T04:01:10.041Z,101826.66
2022-12-01T04:03:39.299Z,101830.06
2022-12-01T04:06:07.930Z,101836.13
2022-12-01T04:08:37.421Z,101831.84
2022-12-01T04:11:29.636Z,101837.94
2022-12-01T04:13:59.043Z,101825.88
2022-12-01T04:16:26.779Z,101835.25
2022-12-01T04:18:55.962Z,101825.81
2022-12-01T04:21:23.622Z,101837.94
2022-12-01T04:24:03.391Z,101827.56
2022-12-01T04:26:33.215Z,101827.50
2022-12-01T04:29:01.087Z,101830.88
2022-12-01T04:31:29.051Z,101831.69
2022-12-01T04:33:58.903Z,101829.09
2022-12-01T04:36:27.499Z,101836.94
2022-12-01T04:38:55.146Z,101827.47
2022-12-01T04:41:22.947Z,101830.94
2022-12-01T04:43:50.636Z,101832.59
2022-12-01T04:46:18.499Z,101830.88
2022-12-01T04:48:46.255Z,101830.94
2022-12-01T04:51:15.292Z,101828.34
2022-12-01T04:53:43.066Z,101832.72
2022-12-01T04:56:11.123Z,101831.06
2022-12-01T04:58:38.844Z,101827.63
2022-12-01T05:01:08.410Z,101831.03
2022-12-01T05:03:38.083Z,101834.50
2022-12-01T05:06:07.166Z,101841.38
2022-12-01T05:08:36.230Z,101832.75
2022-12-01T05:11:05.005Z,101843.13
2022-12-01T05:13:32.798Z,101832.88
2022-12-01T05:16:06.441Z,101831.97
2022-12-01T05:18:34.488Z,101835.41
2022-12-01T05:21:03.797Z,101833.63
2022-12-01T05:23:33.759Z,101838.91
2022-12-01T05:26:03.958Z,101839.72
2022-12-01T05:28:31.688Z,101836.19
2022-12-01T05:30:59.991Z,101835.38
2022-12-01T05:33:29.089Z,101834.53
2022-12-01T05:35:57.042Z,101831.81
2022-12-01T05:38:24.838Z,101830.94
2022-12-01T05:40:53.260Z,101831.84
2022-12-01T05:43:28.777Z,101830.97
2022-12-01T05:45:57.604Z,101834.34
2022-12-01T05:48:25.551Z,101837.81
2022-12-01T05:50:53.491Z,101836.91
2022-12-01T05:53:21.755Z,101834.28
2022-12-01T05:55:53.115Z,101837.63
2022-12-01T05:58:22.362Z,101831.50
2022-12-01T06:00:50.223Z,101839.38
2022-12-01T06:03:17.934Z,101838.53
2022-12-01T06:05:45.611Z,101842.81
2022-12-01T06:08:13.712Z,101840.25
2022-12-01T06:10:41.406Z,101843.78
2022-12-01T06:13:09.155Z,101845.53
2022-12-01T06:15:38.308Z,101844.66
2022-12-01T06:18:06.089Z,101853.38
2022-12-01T06:20:33.891Z,101845.59
2022-12-01T06:23:01.677Z,101849.09
2022-12-01T06:25:29.400Z,101849.91
2022-12-01T06:27:58.251Z,101854.16
2022-12-01T06:30:26.628Z,101856.81
2022-12-01T06:32:55.703Z,101857.69
2022-12-01T06:35:23.434Z,101855.72
2022-12-01T06:37:51.241Z,101860.97
2022-12-01T06:40:18.967Z,101865.38
2022-12-01T06:42:46.800Z,101858.50
2022-12-01T06:45:14.619Z,101861.06
2022-12-01T06:47:42.353Z,101855.84
2022-12-01T06:50:12.267Z,101860.94
2022-12-01T06:52:40.029Z,101861.81
2022-12-01T06:55:08.325Z,101861.75
2022-12-01T06:57:36.351Z,101866.75
2022-12-01T07:00:05.639Z,101876.28
2022-12-01T07:02:33.655Z,101872.00
2022-12-01T07:05:01.508Z,101875.50
2022-12-01T07:07:30.742Z,101869.34
2022-12-01T07:09:58.467Z,101877.13
2022-12-01T07:12:26.180Z,101880.53
2022-12-01T07:14:53.827Z,101883.25
2022-12-01T07:17:21.568Z,101897.16
2022-12-01T07:19:49.675Z,101898.06
2022-12-01T07:22:17.611Z,101898.94
2022-12-01T07:24:46.701Z,101890.34
2022-12-01T07:27:14.535Z,101892.13
2022-12-01T07:29:42.290Z,101902.56
2022-12-01T07:32:09.998Z,101913.94
2022-12-01T07:34:37.806Z,101900.97
2022-12-01T07:37:05.479Z,101907.06
2022-12-01T07:39:33.119Z,101911.41
2022-12-01T07:42:02.193Z,101901.00
2022-12-01T07:44:30.001Z,101909.72
2022-12-01T07:46:57.702Z,101915.78
2022-12-01T07:49:25.687Z,101911.56
2022-12-01T07:51:53.432Z,101911.44
2022-12-01T07:54:21.311Z,101909.72
2022-12-01T07:56:48.990Z,101904.50
2022-12-01T07:59:18.091Z,101911.38
2022-12-01T08:01:46.216Z,101912.31
2022-12-01T08:04:14.060Z,101909.72
2022-12-01T08:06:41.762Z,101909.78
2022-12-01T08:09:09.781Z,101913.22
2022-12-01T08:11:37.467Z,101914.09
2022-12-01T08:14:05.187Z,101918.44
2022-12-01T08:16:34.291Z,101909.03
2022-12-01T08:19:02.024Z,101912.38
2022-12-01T08:21:29.745Z,101918.53
2022-12-01T08:23:58.769Z,101923.78
2022-12-01T08:26:27.889Z,101915.16
2022-12-01T08:28:55.593Z,101915.22
2022-12-01T08:31:25.637Z,101917.94
2022-12-01T08:33:55.330Z,101919.72
2022-12-01T08:36:24.323Z,101916.28
2022-12-01T08:38:54.419Z,101923.16
2022-12-01T08:41:23.049Z,101931.03
2022-12-01T08:43:59.253Z,101918.91
2022-12-01T08:46:28.376Z,101925.06
2022-12-01T08:48:57.893Z,101936.34
2022-12-01T08:51:26.710Z,101932.03
2022-12-01T08:53:56.258Z,101928.75
2022-12-01T08:56:27.768Z,101933.88
2022-12-01T08:58:56.071Z,101933.09
2022-12-01T09:01:25.619Z,101930.63
2022-12-01T09:04:05.130Z,101934.81
2022-12-01T09:06:38.822Z,101942.72
2022-12-01T09:09:06.830Z,101935.81
2022-12-01T09:11:34.505Z,101939.28
2022-12-01T09:14:02.587Z,101937.47
2022-12-01T09:16:30.445Z,101939.19
2022-12-01T09:18:58.305Z,101941.84
2022-12-01T09:21:27.712Z,101945.06
2022-12-01T09:23:56.760Z,101941.59
2022-12-01T09:26:25.110Z,101944.09
2022-12-01T09:28:55.191Z,101932.88
2022-12-01T09:31:24.098Z,101933.81
2022-12-01T09:33:56.549Z,101940.00
2022-12-01T09:36:24.590Z,101940.78
2022-12-01T09:38:52.758Z,101949.22
2022-12-01T09:41:25.341Z,101950.03
2022-12-01T09:43:57.720Z,101943.97
2022-12-01T09:46:29.783Z,101946.44
2022-12-01T09:48:59.482Z,101946.56
2022-12-01T09:51:29.813Z,101948.22
2022-12-01T09:53:59.646Z,101949.09
2022-12-01T09:56:32.014Z,101951.75
2022-12-01T09:59:02.632Z,101946.72
2022-12-01T10:01:35.496Z,101945.06
2022-12-01T10:04:09.089Z,101954.72
2022-12-01T10:06:41.652Z,101951.22
2022-12-01T10:09:19.988Z,101946.06
2022-12-01T10:11:51.812Z,101944.44
2022-12-01T10:14:21.074Z,101938.41
2022-12-01T10:17:00.271Z,101938.41
2022-12-01T10:19:34.671Z,101939.47
2022-12-01T10:22:36.002Z,101936.88
2022-12-01T10:25:12.237Z,101928.16
2022-12-01T10:27:53.931Z,101929.97
2022-12-01T10:30:23.699Z,101928.22
2022-12-01T10:32:55.087Z,101928.06
2022-12-01T10:35:25.268Z,101917.75
2022-12-01T10:37:57.160Z,101922.19
2022-12-01T10:40:26.891Z,101917.75
2022-12-01T10:42:56.495Z,101918.53
2022-12-01T10:45:26.809Z,101913.44
2022-12-01T10:48:16.389Z,101916.81
2022-12-01T10:50:46.201Z,101916.69
2022-12-01T10:53:32.229Z,101912.44
2022-12-01T10:56:05.855Z,101915.97
2022-12-01T10:58:43.459Z,101912.56
2022-12-01T11:01:18.911Z,101909.97
2022-12-01T11:03:52.677Z,101912.63
2022-12-01T11:06:26.843Z,101915.38
2022-12-01T11:08:57.927Z,101912.72
2022-12-01T11:11:30.016Z,101908.31
2022-12-01T11:14:02.517Z,101898.84
2022-12-01T11:16:42.175Z,101899.97
2022-12-01T11:19:23.540Z,101894.72
2022-12-01T11:21:56.593Z,101887.66
2022-12-01T11:24:31.436Z,101895.66
2022-12-01T11:27:00.257Z,101894.75
2022-12-01T11:29:35.442Z,101895.59
2022-12-01T11:32:05.848Z,101892.91
2022-12-01T11:34:36.016Z,101897.97
2022-12-01T11:37:07.346Z,101891.91
2022-12-01T11:39:38.474Z,101889.34
2022-12-01T11:42:23.970Z,101891.91
2022-12-01T11:44:56.099Z,101887.69
2022-12-01T11:47:25.765Z,101897.22
2022-12-01T11:49:57.472Z,101890.91
2022-12-01T11:52:32.560Z,101882.22
2022-12-01T11:55:08.385Z,101884.06
2022-12-01T11:57:40.554Z,101887.81
2022-12-01T12:00:16.203Z,101891.88
2022-12-01T12:02:57.447Z,101883.28
2022-12-01T12:05:49.709Z,101884.38
2022-12-01T12:08:30.566Z,101875.03
2022-12-01T12:11:16.216Z,101879.19
2022-12-01T12:14:04.052Z,101880.34
2022-12-01T12:16:48.895Z,101878.88
2022-12-01T12:20:00.203Z,101876.22
2022-12-01T12:22:32.470Z,101871.59
2022-12-01T12:25:17.568Z,101870.59
2022-12-01T12:27:51.745Z,101866.19
2022-12-01T12:30:23.451Z,101865.41
2022-12-01T12:33:09.462Z,101874.09
2022-12-01T12:35:45.729Z,101867.38
2022-12-01T12:38:31.376Z,101860.41
2022-12-01T12:41:07.588Z,101864.97
2022-12-01T12:43:45.896Z,101860.25
2022-12-01T12:46:17.967Z,101859.28
2022-12-01T12:49:19.666Z,101856.63
2022-12-01T12:51:54.031Z,101853.34
2022-12-01T12:54:27.612Z,101846.75
2022-12-01T12:57:02.067Z,101854.41
2022-12-01T12:59:35.277Z,101855.00
2022-12-01T13:02:14.077Z,101848.75
2022-12-01T13:04:50.219Z,101856.03
2022-12-01T13:07:35.559Z,101841.44
2022-12-01T13:10:07.967Z,101843.19
2022-12-01T13:12:44.645Z,101847.66
2022-12-01T13:15:17.164Z,101846.84
2022-12-01T13:17:47.715Z,101832.16
2022-12-01T13:20:20.248Z,101828.00
2022-12-01T13:22:49.156Z,101831.47
2022-12-01T13:25:24.112Z,101827.63
2022-12-01T13:27:53.381Z,101833.34
2022-12-01T13:30:26.789Z,101827.13
2022-12-01T13:33:00.864Z,101828.19
2022-12-01T13:35:32.166Z,101820.66
2022-12-01T13:38:21.811Z,101819.63
2022-12-01T13:40:50.200Z,101815.38
2022-12-01T13:43:20.907Z,101816.25
2022-12-01T13:45:50.410Z,101829.19
2022-12-01T13:48:30.900Z,101819.47
2022-12-01T13:51:01.916Z,101820.38
2022-12-01T13:53:35.343Z,101829.13
2022-12-01T13:56:22.953Z,101817.66
2022-12-01T13:58:52.797Z,101826.38
2022-12-01T14:01:47.162Z,101817.59
2022-12-01T14:04:30.490Z,101818.28
2022-12-01T14:07:33.306Z,101818.25
2022-12-01T14:10:15.459Z,101830.13
2022-12-01T14:12:46.511Z,101832.56
2022-12-01T14:15:42.265Z,101824.88
2022-12-01T14:18:30.626Z,101818.69
2022-12-01T14:20:58.284Z,101817.91
2022-12-01T14:23:30.560Z,101824.75
2022-12-01T14:26:03.982Z,101824.66
2022-12-01T14:29:10.303Z,101822.94
2022-12-01T14:32:21.151Z,101817.44
2022-12-01T14:34:54.530Z,101822.72
2022-12-01T14:37:25.787Z,101821.91
2022-12-01T14:39:59.400Z,101825.38
2022-12-01T14:42:51.046Z,101825.22
2022-12-01T14:45:23.862Z,101823.31
2022-12-01T14:48:01.184Z,101813.84
2022-12-01T14:50:42.220Z,101818.06
2022-12-01T14:53:24.809Z,101821.50
2022-12-01T14:55:59.689Z,101824.75
2022-12-01T14:58:29.005Z,101817.00
2022-12-01T15:01:06.955Z,101819.56
2022-12-01T15:03:39.441Z,101823.00
2022-12-01T15:06:07.635Z,101819.41
2022-12-01T15:08:45.933Z,101822.88
2022-12-01T15:11:25.307Z,101825.41
2022-12-01T15:13:54.915Z,101821.91
2022-12-01T15:16:24.915Z,101819.25
2022-12-01T15:18:53.401Z,101829.69
2022-12-01T15:21:25.185Z,101825.31
2022-12-01T15:23:54.855Z,101821.81
2022-12-01T15:26:25.538Z,101830.38
2022-12-01T15:29:06.233Z,101831.94
2022-12-01T15:31:35.986Z,101832.78
2022-12-01T15:34:04.130Z,101834.28
2022-12-01T15:36:32.185Z,101837.69
2022-12-01T15:39:06.852Z,101833.44
2022-12-01T15:41:41.280Z,101839.66
2022-12-01T15:44:20.089Z,101843.09
2022-12-01T15:46:47.774Z,101843.16
2022-12-01T15:49:21.108Z,101848.53
2022-12-01T15:51:51.414Z,101846.81
2022-12-01T15:54:21.620Z,101840.81
2022-12-01T15:56:54.810Z,101846.88
2022-12-01T15:59:31.065Z,101848.66
2022-12-01T16:01:59.504Z,101852.91
2022-12-01T16:04:32.244Z,101861.56
2022-12-01T16:07:02.877Z,101852.91
2022-12-01T16:09:35.221Z,101861.63
2022-12-01T16:12:21.904Z,101862.56
2022-12-01T16:14:55.735Z,101867.63
2022-12-01T16:17:25.176Z,101878.91
2022-12-01T16:20:18.071Z,101874.53
2022-12-01T16:22:47.294Z,101873.81
2022-12-01T16:25:22.207Z,101882.44
2022-12-01T16:27:54.916Z,101875.53
2022-12-01T16:30:24.805Z,101871.25
2022-12-01T16:33:01.514Z,101867.78
2022-12-01T16:35:31.391Z,101873.00
2022-12-01T16:38:00.194Z,101868.53
2022-12-01T16:40:27.951Z,101867.72
2022-12-01T16:42:57.362Z,101849.41
2022-12-01T16:45:26.658Z,101857.31
2022-12-01T16:47:54.326Z,101845.94
2022-12-01T16:50:23.150Z,101844.22
2022-12-01T16:52:50.831Z,101850.88
2022-12-01T16:55:39.444Z,101854.47
2022-12-01T16:58:08.474Z,101852.44
2022-12-01T17:00:36.623Z,101852.38
2022-12-01T17:03:05.294Z,101854.38
2022-12-01T17:05:33.112Z,101838.84
2022-12-01T17:08:01.019Z,101842.13
2022-12-01T17:10:28.934Z,101839.53
2022-12-01T17:12:56.610Z,101842.81
2022-12-01T17:15:25.694Z,101839.41
2022-12-01T17:17:54.347Z,101834.06
2022-12-01T17:20:22.065Z,101837.50
2022-12-01T17:22:49.761Z,101840.97
2022-12-01T17:25:18.018Z,101847.84
2022-12-01T17:27:45.706Z,101851.22
2022-12-01T17:30:14.106Z,101850.31
2022-12-01T17:32:43.404Z,101855.44
2022-12-01T17:35:11.236Z,101853.66
2022-12-01T17:37:39.090Z,101858.16
2022-12-01T17:40:09.094Z,101867.56
2022-12-01T17:42:39.505Z,101869.34
2022-12-01T17:45:08.271Z,101865.81
2022-12-01T17:47:36.423Z,101868.38
2022-12-01T17:50:06.963Z,101862.25
2022-12-01T17:52:34.684Z,101869.97
2022-12-01T17:55:02.465Z,101866.63
2022-12-01T17:57:30.336Z,101877.88
2022-12-01T17:59:58.186Z,101870.84
2022-12-01T18:02:26.002Z,101871.72
2022-12-01T18:04:54.183Z,101871.72
2022-12-01T18:07:23.603Z,101867.44
2022-12-01T18:09:51.455Z,101870.03
2022-12-01T18:12:19.162Z,101875.22
2022-12-01T18:14:47.401Z,101878.75
2022-12-01T18:17:15.288Z,101883.13
2022-12-01T18:19:42.976Z,101880.38
2022-12-01T18:22:10.663Z,101880.44
2022-12-01T18:24:39.842Z,101871.59
2022-12-01T18:27:07.959Z,101870.69
2022-12-01T18:29:35.725Z,101877.59
2022-12-01T18:32:03.420Z,101874.78
2022-12-01T18:34:31.272Z,101866.28
2022-12-01T18:36:59.449Z,101870.56
2022-12-01T18:39:27.224Z,101868.78
2022-12-01T18:41:56.289Z,101870.47
2022-12-01T18:44:24.263Z,101874.78
2022-12-01T18:46:52.121Z,101878.94
2022-12-01T18:49:19.971Z,101874.63
2022-12-01T18:51:47.666Z,101876.41
2022-12-01T18:54:16.887Z,101886.69
2022-12-01T18:56:44.676Z,101883.44
2022-12-01T18:59:16.818Z,101878.25
2022-12-01T19:01:46.416Z,101880.78
2022-12-01T19:04:16.078Z,101880.84
2022-12-01T19:06:45.530Z,101873.00
2022-12-01T19:09:15.281Z,101879.06
2022-12-01T19:11:43.620Z,101882.53
2022-12-01T19:14:16.395Z,101869.72
2022-12-01T19:16:44.682Z,101878.41
2022-12-01T19:19:12.570Z,101882.69
2022-12-01T19:21:40.557Z,101860.84
2022-12-01T19:24:08.661Z,101875.50
2022-12-01T19:26:36.433Z,101876.41
2022-12-01T19:29:04.490Z,101866.84
2022-12-01T19:31:33.530Z,101875.59
2022-12-01T19:34:04.705Z,101873.09
2022-12-01T19:36:32.519Z,101868.72
2022-12-01T19:39:03.972Z,101864.41
2022-12-01T19:41:34.982Z,101861.81
2022-12-01T19:44:02.799Z,101863.69
2022-12-01T19:46:30.502Z,101864.53
2022-12-01T19:49:01.498Z,101864.63
2022-12-01T19:51:31.010Z,101863.69
2022-12-01T19:53:59.840Z,101866.31
2022-12-01T19:56:29.260Z,101859.97
2022-12-01T19:58:57.523Z,101856.50
2022-12-01T20:01:25.461Z,101854.66
2022-12-01T20:03:55.148Z,101851.09
2022-12-01T20:06:26.134Z,101860.69
2022-12-01T20:08:55.603Z,101858.81
2022-12-01T20:11:23.946Z,101848.50
2022-12-01T20:13:53.841Z,101858.81
2022-12-01T20:16:23.912Z,101849.16
2022-12-01T20:18:52.704Z,101852.66
2022-12-01T20:21:23.347Z,101845.72
2022-12-01T20:23:57.586Z,101854.50
2022-12-01T20:26:30.431Z,101854.50
2022-12-01T20:29:00.812Z,101863.81
2022-12-01T20:31:30.740Z,101849.19
2022-12-01T20:34:00.615Z,101859.47
2022-12-01T20:36:29.265Z,101855.09
2022-12-01T20:38:58.470Z,101860.22
2022-12-01T20:41:26.205Z,101852.44
2022-12-01T20:43:54.154Z,101861.16
2022-12-01T20:46:21.956Z,101860.13
2022-12-01T20:48:49.679Z,101858.41
2022-12-01T20:51:17.521Z,101853.25
2022-12-01T20:54:05.398Z,101857.53
2022-12-01T20:56:34.645Z,101855.81
2022-12-01T20:59:02.616Z,101850.66
2022-12-01T21:01:30.409Z,101846.34
2022-12-01T21:03:58.318Z,101846.50
2022-12-01T21:06:28.675Z,101851.50
2022-12-01T21:08:56.943Z,101850.59
2022-12-01T21:11:40.732Z,101852.44
2022-12-01T21:14:16.719Z,101853.47
2022-12-01T21:16:48.134Z,101851.63
2022-12-01T21:19:22.963Z,101846.34
2022-12-01T21:21:50.798Z,101844.66
2022-12-01T21:24:22.034Z,101851.63
2022-12-01T21:26:51.577Z,101852.38
2022-12-01T21:29:24.983Z,101847.97
2022-12-01T21:31:57.307Z,101851.47
2022-12-01T21:34:27.455Z,101848.00
2022-12-01T21:36:58.937Z,101842.81
2022-12-01T21:39:27.366Z,101840.28
2022-12-01T21:41:57.366Z,101847.91
2022-12-01T21:44:33.837Z,101844.50
2022-12-01T21:47:12.146Z,101849.69
2022-12-01T21:49:40.659Z,101844.38
2022-12-01T21:52:15.351Z,101838.28
2022-12-01T21:54:43.346Z,101838.31
2022-12-01T21:57:30.549Z,101835.03
2022-12-01T22:00:24.129Z,101825.50
2022-12-01T22:02:54.312Z,101825.28
2022-12-01T22:05:31.072Z,101832.22
2022-12-01T22:08:09.190Z,101825.41
2022-12-01T22:10:56.791Z,101820.09
2022-12-01T22:13:33.489Z,101824.50
2022-12-01T22:16:02.638Z,101832.28
2022-12-01T22:18:36.866Z,101820.19
2022-12-01T22:21:35.672Z,101818.63
2022-12-01T22:24:21.973Z,101819.34
2022-12-01T22:26:53.466Z,101818.38
2022-12-01T22:29:27.933Z,101815.88
2022-12-01T22:32:33.023Z,101801.97
2022-12-01T22:35:34.652Z,101806.31
2022-12-01T22:38:20.036Z,101796.03
2022-12-01T22:40:56.212Z,101795.16
2022-12-01T22:43:27.691Z,101790.84
2022-12-01T22:46:16.497Z,101796.69
2022-12-01T22:48:47.942Z,101796.84
2022-12-01T22:51:28.479Z,101790.06
2022-12-01T22:54:00.871Z,101801.22
2022-12-01T22:56:32.683Z,101797.75
2022-12-01T22:59:00.543Z,101795.22
2022-12-01T23:01:30.953Z,101791.69
2022-12-01T23:04:22.608Z,101791.69
2022-12-01T23:06:58.922Z,101787.44
2022-12-01T23:09:32.136Z,101783.91
2022-12-01T23:12:04.251Z,101799.53
2022-12-01T23:14:34.419Z,101790.88
2022-12-01T23:17:08.631Z,101790.91
2022-12-01T23:19:37.655Z,101795.16
2022-12-01T23:22:05.743Z,101779.38
2022-12-01T23:24:34.426Z,101779.31
2022-12-01T23:27:02.377Z,101777.69
2022-12-01T23:29:31.245Z,101787.78
2022-12-01T23:31:59.144Z,101790.66
2022-12-01T23:34:26.896Z,101788.09
2022-12-01T23:36:56.209Z,101789.84
2022-12-01T23:39:32.974Z,101791.44
2022-12-01T23:42:01.098Z,101787.16
2022-12-01T23:44:39.582Z,101779.31
2022-12-01T23:47:17.880Z,101772.41
2022-12-01T23:49:47.422Z,101780.28
2022-12-01T23:52:20.586Z,101772.41
2022-12-01T23:54:49.293Z,101769.72
2022-12-01T23:57:21.403Z,101764.44
2022-12-01T23:59:50.287Z,101771.25
